Time;durP1;ratioP1;P1;durP2;ratioP2;P2;SDS_P1;SDS_P2;PMS_P1;PMS_P2;Temp;Humidity;BMP_temperature;BMP_pressure;BME280_temperature;BME280_humidity;BME280_pressure;Samples;Min_cycle;Max_cycle;Signal;HPM_P1;HPM_P2
2022/09/08 00:00:06;;;;;;;3.13;2.42;;;9.60;94.20;;;;;;5013806;28;20061;-81
2022/09/08 00:02:35;;;;;;;4.68;2.53;;;9.60;94.20;;;;;;5013698;28;20029;-81
2022/09/08 00:05:02;;;;;;;2.50;2.28;;;9.60;94.20;;;;;;5013248;28;20378;-83
2022/09/08 00:07:29;;;;;;;3.73;2.70;;;9.60;94.00;;;;;;5013972;28;20418;-82
2022/09/08 00:09:54;;;;;;;5.82;3.05;;;9.60;93.90;;;;;;5016421;28;20049;-82
2022/09/08 00:12:21;;;;;;;3.17;2.40;;;9.60;93.90;;;;;;5000726;28;20057;-82
2022/09/08 00:14:46;;;;;;;4.00;2.15;;;9.70;94.00;;;;;;5013124;28;20077;-81
2022/09/08 00:17:12;;;;;;;2.90;2.38;;;9.60;93.90;;;;;;5000401;28;20026;-81
2022/09/08 00:19:38;;;;;;;3.25;2.65;;;9.60;93.80;;;;;;5017120;28;20467;-82
2022/09/08 00:22:04;;;;;;;2.53;2.00;;;9.60;93.80;;;;;;5026393;28;20390;-81
2022/09/08 00:24:30;;;;;;;3.55;2.47;;;9.60;93.80;;;;;;5013182;28;20430;-82
2022/09/08 00:26:56;;;;;;;2.83;2.35;;;9.60;93.80;;;;;;5035574;28;20045;-83
2022/09/08 00:29:21;;;;;;;2.75;2.03;;;9.60;93.70;;;;;;5016842;28;20423;-82
2022/09/08 00:31:48;;;;;;;3.67;2.05;;;9.50;93.80;;;;;;5024068;28;20070;-82
2022/09/08 00:34:13;;;;;;;3.35;2.30;;;9.50;93.90;;;;;;5018350;28;20451;-82
2022/09/08 00:36:40;;;;;;;2.13;1.92;;;9.60;93.90;;;;;;5018597;28;20068;-81
2022/09/08 00:39:06;;;;;;;2.10;1.83;;;9.60;93.80;;;;;;5021633;28;20108;-81
2022/09/08 00:41:31;;;;;;;3.80;1.60;;;9.50;93.70;;;;;;5014376;28;20054;-81
2022/09/08 00:43:59;;;;;;;2.47;1.70;;;9.50;93.60;;;;;;5015718;28;20133;-83
2022/09/08 00:46:33;;;;;;;2.92;1.50;;;9.50;93.70;;;;;;5024317;28;20022;-82
2022/09/08 00:49:16;;;;;;;2.50;2.10;;;9.50;93.70;;;;;;5012096;28;20033;-82
2022/09/08 00:51:47;;;;;;;2.67;2.03;;;9.50;93.70;;;;;;5011095;28;20116;-81
2022/09/08 00:54:16;;;;;;;2.45;1.98;;;9.50;93.80;;;;;;5033082;28;20029;-82
2022/09/08 00:56:45;;;;;;;2.85;1.75;;;9.50;93.80;;;;;;5025412;28;20399;-81
2022/09/08 00:59:15;;;;;;;2.35;1.55;;;9.50;93.90;;;;;;5017125;28;20025;-83
2022/09/08 01:01:41;;;;;;;4.40;2.38;;;9.50;93.90;;;;;;5031963;28;21371;-83
2022/09/08 01:04:08;;;;;;;2.22;1.90;;;9.60;93.80;;;;;;5006721;28;20029;-83
2022/09/08 01:15:06;;;;;;;2.33;2.10;;;9.60;93.70;;;;;;5018995;28;20187;-80
2022/09/08 01:17:32;;;;;;;2.15;1.80;;;9.70;93.60;;;;;;5017392;28;20026;-81
2022/09/08 01:20:01;;;;;;;3.20;2.03;;;9.70;93.50;;;;;;5017351;28;20029;-81
2022/09/08 01:22:55;;;;;;;2.50;2.20;;;9.70;93.50;;;;;;5017782;28;20109;-82
2022/09/08 01:25:29;;;;;;;3.25;2.35;;;9.60;93.10;;;;;;5016657;28;20081;-81
2022/09/08 01:28:05;;;;;;;2.30;2.05;;;9.60;93.20;;;;;;5018397;28;20030;-80
2022/09/08 01:30:33;;;;;;;2.72;2.17;;;9.50;93.20;;;;;;5002144;28;20033;-80
2022/09/08 01:33:01;;;;;;;3.10;2.20;;;9.50;93.30;;;;;;5021195;28;20046;-81
2022/09/08 01:35:32;;;;;;;3.25;1.90;;;9.40;93.40;;;;;;5023910;28;20077;-82
2022/09/08 01:37:59;;;;;;;2.67;2.10;;;9.50;93.50;;;;;;5021385;28;20395;-80
2022/09/08 01:40:25;;;;;;;3.95;2.40;;;9.50;93.50;;;;;;5015083;28;20026;-80
2022/09/08 01:42:51;;;;;;;5.13;3.10;;;9.50;93.30;;;;;;5014504;28;20032;-81
2022/09/08 01:45:17;;;;;;;3.97;3.10;;;9.40;93.20;;;;;;5015116;28;20037;-82
2022/09/08 01:47:43;;;;;;;6.60;3.42;;;9.40;93.20;;;;;;4997948;28;20029;-81
2022/09/08 01:50:09;;;;;;;4.82;3.85;;;9.30;93.20;;;;;;5014503;28;20038;-80
2022/09/08 01:52:35;;;;;;;3.97;3.42;;;9.40;93.20;;;;;;5017356;28;20398;-82
2022/09/08 01:55:02;;;;;;;4.75;3.85;;;9.30;93.10;;;;;;4993258;28;20023;-79
2022/09/08 01:57:28;;;;;;;4.60;3.95;;;9.30;93.10;;;;;;5012354;28;20028;-80
2022/09/08 01:59:54;;;;;;;6.03;4.20;;;9.30;93.20;;;;;;5007719;28;20026;-79
2022/09/08 02:02:20;;;;;;;6.40;4.63;;;9.30;93.30;;;;;;5027856;28;20108;-80
2022/09/08 02:04:46;;;;;;;4.18;3.72;;;9.30;93.30;;;;;;5030659;28;20014;-79
2022/09/08 02:07:12;;;;;;;5.03;4.30;;;9.30;93.40;;;;;;5023321;28;20044;-79
2022/09/08 02:09:38;;;;;;;4.35;3.75;;;9.30;93.50;;;;;;5019610;28;20037;-81
2022/09/08 02:12:04;;;;;;;6.03;5.50;;;9.30;93.50;;;;;;5003854;28;20038;-80
2022/09/08 02:14:30;;;;;;;5.30;4.10;;;9.30;93.40;;;;;;5013753;28;20022;-81
2022/09/08 02:16:55;;;;;;;4.80;4.28;;;9.30;93.40;;;;;;5015340;28;20378;-80
2022/09/08 02:19:21;;;;;;;6.00;5.18;;;9.30;93.40;;;;;;5015248;28;20028;-80
2022/09/08 02:21:47;;;;;;;5.70;4.63;;;9.30;93.40;;;;;;5016633;28;20018;-80
2022/09/08 02:24:13;;;;;;;5.55;4.28;;;9.30;93.40;;;;;;5029409;28;20129;-80
2022/09/08 02:26:40;;;;;;;6.03;4.75;;;9.30;93.40;;;;;;5019766;28;20052;-80
2022/09/08 02:29:09;;;;;;;6.28;4.57;;;9.30;93.30;;;;;;5017891;28;20029;-82
2022/09/08 02:31:35;;;;;;;6.38;5.78;;;9.30;93.30;;;;;;5014030;28;20029;-81
2022/09/08 02:34:01;;;;;;;5.82;4.72;;;9.20;93.40;;;;;;5017581;28;20057;-81
2022/09/08 02:36:27;;;;;;;5.03;4.45;;;9.20;93.40;;;;;;5003705;28;20202;-80
2022/09/08 02:38:54;;;;;;;5.80;5.20;;;9.20;93.40;;;;;;5038312;28;20042;-80
2022/09/08 02:41:27;;;;;;;6.47;4.25;;;9.30;93.50;;;;;;5013283;28;20064;-81
2022/09/08 02:43:53;;;;;;;6.30;4.93;;;9.20;93.40;;;;;;5018811;28;20488;-82
2022/09/08 02:46:19;;;;;;;5.30;4.63;;;9.30;93.50;;;;;;5020933;28;20029;-81
2022/09/08 02:48:45;;;;;;;5.50;4.93;;;9.30;93.40;;;;;;5016301;28;20038;-82
2022/09/08 02:51:14;;;;;;;5.50;4.22;;;9.30;93.40;;;;;;5020816;28;20053;-81
2022/09/08 02:53:41;;;;;;;4.57;4.18;;;9.30;93.30;;;;;;5030504;28;20013;-81
2022/09/08 02:56:08;;;;;;;6.15;4.15;;;9.30;93.20;;;;;;5026484;28;20553;-82
2022/09/08 02:58:36;;;;;;;7.45;4.30;;;9.20;93.00;;;;;;5019644;28;20034;-82
2022/09/08 03:01:03;;;;;;;5.78;4.32;;;9.30;93.10;;;;;;5003217;28;20037;-82
2022/09/08 03:03:29;;;;;;;4.38;3.97;;;9.30;93.10;;;;;;5018973;28;20040;-81
2022/09/08 03:05:55;;;;;;;4.47;4.07;;;9.30;93.10;;;;;;5023816;28;20431;-80
2022/09/08 03:08:22;;;;;;;6.18;4.40;;;9.30;93.10;;;;;;5026796;28;20021;-81
2022/09/08 03:10:48;;;;;;;4.93;4.32;;;9.30;93.10;;;;;;4999094;28;20032;-82
2022/09/08 03:13:14;;;;;;;5.97;4.90;;;9.30;93.00;;;;;;5012932;28;20034;-81
2022/09/08 03:15:41;;;;;;;3.85;3.55;;;9.30;93.00;;;;;;5013064;28;20018;-82
2022/09/08 03:18:07;;;;;;;4.80;4.20;;;9.30;93.10;;;;;;5014339;28;20072;-82
2022/09/08 03:20:34;;;;;;;3.38;3.08;;;9.30;93.20;;;;;;5013985;28;20026;-81
2022/09/08 03:23:00;;;;;;;3.35;3.05;;;9.20;93.30;;;;;;5015305;28;20030;-81
2022/09/08 03:25:27;;;;;;;4.15;3.72;;;9.00;93.50;;;;;;5012880;28;20064;-81
2022/09/08 03:27:53;;;;;;;5.10;4.07;;;9.00;93.80;;;;;;5015692;28;20120;-81
2022/09/08 03:30:19;;;;;;;3.75;3.10;;;9.00;94.00;;;;;;5018289;28;20017;-81
2022/09/08 03:32:46;;;;;;;6.20;3.95;;;8.90;94.10;;;;;;5015726;28;20487;-81
2022/09/08 03:35:16;;;;;;;5.35;4.35;;;8.90;94.20;;;;;;5017227;28;20021;-81
2022/09/08 03:37:42;;;;;;;5.03;4.25;;;8.90;94.20;;;;;;5015530;28;20026;-82
2022/09/08 03:40:12;;;;;;;4.88;3.67;;;9.00;94.20;;;;;;5015781;28;20109;-81
2022/09/08 03:42:40;;;;;;;6.70;4.20;;;9.00;94.10;;;;;;5016545;28;20490;-81
2022/09/08 03:45:08;;;;;;;;;;;9.00;93.80;;;;;;5017638;28;20025;-81
2022/09/08 03:47:34;;;;;;;6.57;4.30;;;9.10;93.80;;;;;;5000585;28;19954;-81
2022/09/08 03:50:01;;;;;;;5.80;4.00;;;9.10;93.70;;;;;;5041468;28;20024;-81
2022/09/08 03:52:27;;;;;;;5.55;4.35;;;9.10;93.60;;;;;;5002246;28;20129;-81
2022/09/08 03:54:53;;;;;;;4.50;4.05;;;9.20;93.30;;;;;;5003839;28;20018;-82
2022/09/08 03:57:22;;;;;;;4.22;3.42;;;9.30;93.30;;;;;;5016142;28;20022;-80
2022/09/08 03:59:52;;;;;;;5.35;4.32;;;9.30;93.00;;;;;;4997530;28;20446;-80
2022/09/08 04:02:20;;;;;;;5.38;4.53;;;9.40;92.90;;;;;;5022260;28;20112;-82
2022/09/08 04:04:54;;;;;;;5.55;4.68;;;9.40;92.70;;;;;;5013225;28;20018;-81
2022/09/08 04:07:21;;;;;;;4.90;4.38;;;9.40;92.60;;;;;;5006827;28;20025;-80
2022/09/08 04:09:47;;;;;;;5.80;4.32;;;9.50;92.50;;;;;;5025013;28;20022;-80
2022/09/08 04:12:15;;;;;;;5.35;3.88;;;9.50;92.40;;;;;;5023342;28;20164;-80
2022/09/08 04:14:41;;;;;;;;;;;9.50;92.40;;;;;;5023217;28;20052;-82
2022/09/08 04:17:07;;;;;;;6.13;5.10;;;9.60;92.30;;;;;;5020890;28;19909;-83
2022/09/08 04:19:33;;;;;;;4.53;3.85;;;9.50;92.20;;;;;;5019873;28;20057;-81
2022/09/08 04:21:59;;;;;;;5.28;4.22;;;9.50;91.90;;;;;;5018352;28;20097;-80
2022/09/08 04:24:25;;;;;;;4.10;3.03;;;9.60;91.90;;;;;;5018022;28;20068;-81
2022/09/08 04:26:51;;;;;;;5.30;4.68;;;9.70;91.60;;;;;;4996269;28;20511;-81
2022/09/08 04:29:17;;;;;;;4.05;3.65;;;9.70;91.50;;;;;;5011827;28;20131;-81
2022/09/08 04:31:44;;;;;;;4.93;4.05;;;9.70;91.40;;;;;;5021968;28;20116;-82
2022/09/08 04:34:10;;;;;;;5.25;3.95;;;9.80;91.20;;;;;;5019795;28;20030;-84
2022/09/08 04:36:36;;;;;;;4.22;3.33;;;9.80;91.20;;;;;;5023002;28;20021;-82
2022/09/08 04:39:03;;;;;;;4.18;3.17;;;9.90;90.90;;;;;;5030857;28;20025;-81
2022/09/08 04:41:31;;;;;;;6.28;3.90;;;9.90;90.40;;;;;;5025770;28;20029;-81
2022/09/08 04:44:00;;;;;;;4.22;2.97;;;10.00;90.10;;;;;;5023384;28;20022;-82
2022/09/08 04:46:27;;;;;;;4.55;3.30;;;10.00;89.90;;;;;;5007259;28;20037;-81
2022/09/08 04:48:54;;;;;;;3.63;2.97;;;10.10;89.90;;;;;;5023696;28;20014;-82
2022/09/08 04:51:20;;;;;;;5.18;2.97;;;10.10;89.50;;;;;;5005500;28;20286;-82
2022/09/08 04:53:47;;;;;;;4.43;3.20;;;10.20;88.90;;;;;;5025381;28;20025;-83
2022/09/08 04:56:15;;;;;;;3.55;2.85;;;10.20;88.30;;;;;;5021637;28;20076;-80
2022/09/08 04:58:42;;;;;;;4.50;3.05;;;10.30;88.20;;;;;;5009712;28;20111;-83
2022/09/08 05:01:13;;;;;;;4.40;2.78;;;10.30;87.90;;;;;;5016171;28;20022;-83
2022/09/08 05:03:40;;;;;;;4.07;2.78;;;10.20;87.80;;;;;;5023518;28;20105;-82
2022/09/08 05:06:15;;;;;;;5.78;3.05;;;10.10;88.20;;;;;;5016872;28;20018;-84
2022/09/08 05:08:46;;;;;;;7.55;4.15;;;10.00;89.10;;;;;;5008849;28;20050;-83
2022/09/08 05:11:15;;;;;;;5.22;3.13;;;10.00;89.50;;;;;;5007167;28;20084;-82
2022/09/08 05:13:42;;;;;;;4.32;2.85;;;10.00;88.80;;;;;;5003601;28;20026;-83
2022/09/08 05:16:15;;;;;;;3.53;2.92;;;9.90;88.80;;;;;;5020695;28;20018;-81
2022/09/08 05:18:41;;;;;;;3.97;3.28;;;10.00;89.10;;;;;;5004095;28;20382;-84
2022/09/08 05:21:09;;;;;;;5.13;3.35;;;10.10;88.70;;;;;;5023704;28;20069;-80
2022/09/08 05:23:35;;;;;;;4.25;3.35;;;10.30;87.80;;;;;;5021594;28;20495;-82
2022/09/08 05:26:07;;;;;;;4.25;3.42;;;10.40;86.40;;;;;;5040950;28;20633;-81
2022/09/08 05:28:36;;;;;;;3.95;3.50;;;10.50;86.70;;;;;;5024640;28;20037;-82
2022/09/08 05:31:03;;;;;;;8.73;4.38;;;10.60;84.70;;;;;;5027681;28;20009;-82
2022/09/08 05:33:30;;;;;;;3.90;3.40;;;10.90;84.20;;;;;;5008768;28;20065;-83
2022/09/08 05:35:56;;;;;;;6.07;4.00;;;11.10;83.10;;;;;;5012606;28;20025;-81
2022/09/08 05:38:22;;;;;;;5.40;3.80;;;11.10;82.20;;;;;;5036983;28;20029;-83
2022/09/08 05:40:49;;;;;;;;;;;11.10;81.70;;;;;;5028122;28;20026;-81
2022/09/08 05:43:16;;;;;;;5.10;3.28;;;11.00;81.80;;;;;;5029311;28;19906;-81
2022/09/08 05:45:47;;;;;;;3.90;2.65;;;10.80;82.00;;;;;;5032723;28;20022;-82
2022/09/08 05:48:14;;;;;;;4.93;4.03;;;10.70;82.50;;;;;;5015593;28;20120;-82
2022/09/08 05:50:44;;;;;;;7.47;4.63;;;10.80;81.70;;;;;;5036411;28;20053;-81
2022/09/08 05:53:11;;;;;;;3.95;3.13;;;10.90;82.20;;;;;;5015075;28;20105;-82
2022/09/08 05:55:37;;;;;;;8.73;4.03;;;11.10;82.00;;;;;;5025445;28;20024;-83
2022/09/08 05:58:03;;;;;;;5.20;3.65;;;11.20;81.20;;;;;;5056927;28;20056;-83
2022/09/08 06:00:29;;;;;;;7.88;4.03;;;11.30;81.00;;;;;;5024576;28;20112;-83
2022/09/08 06:02:55;;;;;;;7.22;4.22;;;11.50;80.70;;;;;;5036898;28;20022;-83
2022/09/08 06:05:24;;;;;;;3.65;3.25;;;11.60;79.70;;;;;;5005387;28;20403;-82
2022/09/08 06:07:49;;;;;;;5.63;3.60;;;11.70;79.00;;;;;;5021235;28;20022;-82
2022/09/08 06:10:16;;;;;;;4.25;3.20;;;11.90;78.50;;;;;;5022614;28;20037;-82
2022/09/08 06:12:44;;;;;;;5.05;2.75;;;12.00;77.20;;;;;;5023751;28;20064;-84
2022/09/08 06:15:11;;;;;;;3.53;2.67;;;11.80;76.20;;;;;;5010675;28;20506;-82
2022/09/08 06:17:38;;;;;;;3.97;3.30;;;11.40;77.20;;;;;;5022971;28;20033;-82
2022/09/08 06:20:05;;;;;;;7.30;5.43;;;11.20;78.20;;;;;;5024690;28;20022;-83
2022/09/08 06:22:32;;;;;;;8.02;3.83;;;11.10;79.90;;;;;;5004020;28;20029;-83
2022/09/08 06:24:59;;;;;;;4.72;3.15;;;11.20;80.00;;;;;;5042335;28;20044;-83
2022/09/08 06:27:55;;;;;;;4.87;2.80;;;11.10;80.30;;;;;;5028776;28;20069;-84
2022/09/08 06:30:21;;;;;;;4.30;3.35;;;10.90;81.80;;;;;;5006549;28;20329;-83
2022/09/08 06:32:50;;;;;;;6.30;3.42;;;10.70;83.00;;;;;;5031582;28;20065;-82
2022/09/08 06:35:47;;;;;;;7.15;3.67;;;10.60;83.60;;;;;;5031039;28;20022;-85
2022/09/08 06:38:19;;;;;;;5.18;3.35;;;10.80;84.30;;;;;;5025554;28;20026;-85
2022/09/08 06:40:49;;;;;;;4.35;2.67;;;11.10;83.10;;;;;;5029838;28;20022;-83
2022/09/08 06:43:26;;;;;;;4.15;2.50;;;11.40;79.20;;;;;;5029292;28;20021;-82
2022/09/08 06:46:07;;;;;;;4.53;2.50;;;11.50;78.20;;;;;;5026513;28;20013;-83
2022/09/08 06:48:35;;;;;;;8.57;3.75;;;11.40;78.70;;;;;;5027511;28;20022;-84
2022/09/08 06:51:22;;;;;;;5.65;4.38;;;11.40;78.70;;;;;;5023455;28;20089;-84
2022/09/08 06:54:04;;;;;;;4.22;2.70;;;11.40;78.30;;;;;;5023133;28;20483;-84
2022/09/08 06:57:07;;;;;;;3.88;2.63;;;11.50;78.40;;;;;;5021714;28;20025;-83
2022/09/08 07:00:11;;;;;;;4.50;3.08;;;11.70;78.40;;;;;;5027278;28;20064;-83
2022/09/08 07:03:08;;;;;;;3.95;2.40;;;11.90;77.90;;;;;;5014364;28;20022;-83
2022/09/08 07:09:26;;;;;;;9.70;4.38;;;11.60;77.80;;;;;;5025718;28;20037;-83
2022/09/08 07:12:02;;;;;;;9.32;3.55;;;11.70;78.60;;;;;;4997829;28;20050;-84
2022/09/08 07:14:34;;;;;;;7.05;3.28;;;11.70;78.30;;;;;;4991929;28;20062;-85
2022/09/08 07:17:15;;;;;;;4.10;2.80;;;11.50;78.40;;;;;;4997769;28;20031;-84
2022/09/08 07:19:54;;;;;;;4.60;3.22;;;11.20;79.90;;;;;;5004701;28;20026;-83
2022/09/08 07:22:28;;;;;;;7.10;3.78;;;11.00;81.80;;;;;;5011043;28;20037;-84
2022/09/08 07:25:17;;;;;;;8.18;3.72;;;10.80;83.30;;;;;;5008230;28;20056;-84
2022/09/08 07:27:47;;;;;;;5.40;3.85;;;10.70;84.00;;;;;;5009049;28;20038;-84
2022/09/08 07:30:15;;;;;;;5.30;4.05;;;10.30;86.00;;;;;;5002055;28;20201;-85
2022/09/08 07:32:44;;;;;;;7.40;4.03;;;10.10;88.10;;;;;;4991837;28;20029;-83
2022/09/08 07:35:34;;;;;;;8.18;4.38;;;10.10;89.80;;;;;;4988927;28;20101;-83
2022/09/08 07:38:08;;;;;;;4.88;4.35;;;10.10;90.20;;;;;;5004516;28;20025;-81
2022/09/08 07:40:45;;;;;;;7.05;4.85;;;10.40;90.20;;;;;;4999671;28;20022;-83
2022/09/08 07:43:14;;;;;;;;;;;10.50;89.60;;;;;;4988518;28;20034;-87
2022/09/08 07:46:11;;;;;;;3.75;2.72;;;10.40;89.50;;;;;;5000250;28;19909;-83
2022/09/08 07:49:21;;;;;;;5.43;4.13;;;10.00;89.90;;;;;;5008812;28;20026;-83
2022/09/08 07:52:02;;;;;;;6.20;4.10;;;10.00;90.50;;;;;;5001343;28;20046;-82
2022/09/08 07:54:49;;;;;;;8.60;3.65;;;10.10;90.30;;;;;;5026223;28;20113;-86
2022/09/08 07:57:40;;;;;;;4.97;3.85;;;10.50;90.10;;;;;;5017947;28;20080;-84
2022/09/08 08:00:29;;;;;;;4.55;3.28;;;10.50;89.10;;;;;;5023262;28;20058;-85
2022/09/08 08:03:28;;;;;;;6.30;3.72;;;10.30;89.40;;;;;;5039417;28;20040;-84
2022/09/08 08:06:19;;;;;;;5.35;4.78;;;10.20;89.80;;;;;;5017756;28;20050;-84
2022/09/08 08:09:13;;;;;;;5.47;4.28;;;10.30;89.90;;;;;;5035280;28;20049;-83
2022/09/08 08:12:06;;;;;;;7.85;4.32;;;10.70;90.00;;;;;;5030942;28;20072;-82
2022/09/08 08:15:04;;;;;;;6.07;4.40;;;10.90;88.10;;;;;;5013656;28;20026;-84
2022/09/08 08:17:37;;;;;;;8.15;5.05;;;10.90;86.80;;;;;;5021232;28;20061;-83
2022/09/08 08:20:31;;;;;;;7.88;5.43;;;10.90;86.60;;;;;;5002922;28;20168;-83
2022/09/08 08:23:22;;;;;;;8.32;4.30;;;10.80;87.50;;;;;;5036316;28;20030;-85
2022/09/08 08:25:57;;;;;;;7.10;4.90;;;10.80;87.90;;;;;;5020270;28;20046;-84
2022/09/08 08:28:23;;;;;;;6.70;4.72;;;10.80;88.40;;;;;;5032393;28;20054;-84
2022/09/08 08:31:26;;;;;;;7.50;4.35;;;10.90;87.80;;;;;;5008497;28;20022;-84
2022/09/08 08:34:04;;;;;;;5.20;3.75;;;11.50;87.20;;;;;;5039978;28;20060;-82
2022/09/08 08:36:33;;;;;;;5.75;3.47;;;12.40;82.10;;;;;;5030349;28;20033;-83
2022/09/08 08:39:30;;;;;;;4.32;2.75;;;12.90;78.60;;;;;;5026758;28;20022;-83
2022/09/08 08:42:14;;;;;;;4.45;2.70;;;13.10;74.40;;;;;;5015283;28;20061;-81
2022/09/08 08:45:25;;;;;;;6.97;4.40;;;12.70;75.40;;;;;;5039625;28;20046;-85
2022/09/08 08:48:24;;;;;;;7.25;4.75;;;12.30;77.60;;;;;;5021806;28;20080;-86
2022/09/08 08:50:57;;;;;;;5.07;3.80;;;11.90;79.10;;;;;;5017305;28;20044;-84
2022/09/08 08:53:55;;;;;;;5.25;2.95;;;11.80;80.30;;;;;;5020904;28;20034;-85
2022/09/08 08:56:33;;;;;;;9.75;3.58;;;11.90;80.20;;;;;;5013718;28;20042;-84
2022/09/08 08:59:19;;;;;;;3.33;2.75;;;12.30;79.30;;;;;;5017161;28;20022;-81
2022/09/08 09:02:04;;;;;;;5.50;3.42;;;13.00;76.60;;;;;;5030962;28;20553;-82
2022/09/08 09:04:34;;;;;;;6.57;3.67;;;13.30;74.20;;;;;;5033271;28;20041;-82
2022/09/08 09:07:21;;;;;;;7.95;5.05;;;13.10;74.00;;;;;;5023228;28;20025;-82
2022/09/08 09:09:53;;;;;;;;;;;12.70;74.40;;;;;;5035678;28;20033;-82
2022/09/08 09:12:25;;;;;;;5.35;3.33;;;12.50;75.50;;;;;;5015496;28;19923;-86
2022/09/08 09:15:17;;;;;;;5.85;2.85;;;12.40;76.30;;;;;;5002042;28;20022;-83
2022/09/08 09:18:04;;;;;;;5.15;2.90;;;12.20;76.30;;;;;;5028416;28;20055;-85
2022/09/08 09:20:59;;;;;;;4.63;2.50;;;11.80;77.20;;;;;;5025916;28;20045;-84
2022/09/08 09:23:40;;;;;;;4.28;2.47;;;11.40;78.10;;;;;;5052482;28;20022;-85
2022/09/08 09:26:20;;;;;;;2.55;2.22;;;11.00;79.60;;;;;;5034183;28;20069;-85
2022/09/08 09:28:54;;;;;;;3.90;2.47;;;10.80;80.80;;;;;;5016478;28;20049;-84
2022/09/08 09:31:49;;;;;;;4.22;2.75;;;10.70;81.40;;;;;;5003032;28;20026;-83
2022/09/08 09:34:44;;;;;;;4.32;2.72;;;10.60;81.70;;;;;;5011806;28;20041;-84
2022/09/08 09:38:06;;;;;;;9.70;4.03;;;10.80;82.40;;;;;;5012791;28;20083;-85
2022/09/08 09:40:32;;;;;;;3.95;2.90;;;10.90;82.30;;;;;;4970623;28;20036;-86
2022/09/08 09:43:10;;;;;;;5.45;3.10;;;10.90;82.00;;;;;;4941379;29;20481;-84
2022/09/08 09:45:58;;;;;;;8.00;2.70;;;11.00;82.00;;;;;;4964150;29;20053;-87
2022/09/08 09:48:46;;;;;;;5.70;2.22;;;11.20;80.80;;;;;;4959909;29;20035;-83
2022/09/08 09:51:35;;;;;;;5.53;2.83;;;11.40;79.90;;;;;;4961844;29;20497;-83
2022/09/08 09:54:22;;;;;;;5.13;2.03;;;11.70;79.30;;;;;;4971791;29;20042;-84
2022/09/08 09:57:19;;;;;;;4.45;2.47;;;11.60;78.00;;;;;;4956298;29;20478;-84
2022/09/08 10:00:27;;;;;;;5.00;2.13;;;11.30;78.30;;;;;;4968923;29;20031;-84
2022/09/08 10:04:02;;;;;;;3.85;2.20;;;11.20;79.80;;;;;;4965335;29;20039;-89
2022/09/08 10:06:40;;;;;;;2.15;1.85;;;11.20;79.60;;;;;;4909730;29;20024;-87
2022/09/08 10:09:45;;;;;;;3.80;1.85;;;11.10;79.50;;;;;;4912718;28;20036;-85
2022/09/08 10:12:49;;;;;;;3.75;2.20;;;11.20;79.20;;;;;;4939959;29;20043;-85
2022/09/08 10:15:45;;;;;;;9.15;2.58;;;11.40;78.90;;;;;;4938878;29;20029;-85
2022/09/08 10:18:37;;;;;;;2.92;1.95;;;11.90;78.30;;;;;;4937054;29;20098;-86
2022/09/08 10:21:24;;;;;;;4.88;2.58;;;12.50;76.00;;;;;;4933198;29;20060;-87
2022/09/08 10:24:31;;;;;;;3.95;2.10;;;13.10;74.10;;;;;;4929790;29;20128;-87
2022/09/08 10:26:59;;;;;;;;;;;13.40;72.20;;;;;;4914553;29;20117;-87
2022/09/08 10:29:36;;;;;;;4.13;2.20;;;13.50;72.60;;;;;;4939228;29;19954;-88
2022/09/08 10:32:21;;;;;;;3.58;2.00;;;13.40;70.30;;;;;;4916560;29;20039;-89
2022/09/08 10:35:17;;;;;;;4.47;2.60;;;13.20;71.10;;;;;;4924502;29;20052;-92
2022/09/08 10:37:58;;;;;;;4.50;2.47;;;13.00;71.70;;;;;;4916636;29;20028;-86
2022/09/08 10:40:50;;;;;;;3.78;2.53;;;12.70;71.90;;;;;;4932026;29;20044;-87
2022/09/08 10:43:35;;;;;;;3.47;2.25;;;12.30;73.40;;;;;;5013979;28;20089;-85
2022/09/08 10:46:32;;;;;;;4.47;2.38;;;11.80;76.00;;;;;;5023544;28;20032;-85
2022/09/08 10:49:28;;;;;;;2.72;2.03;;;11.50;78.40;;;;;;5021996;28;20053;-86
2022/09/08 10:52:25;;;;;;;4.45;2.28;;;11.20;79.50;;;;;;5029071;28;20043;-83
2022/09/08 10:55:04;;;;;;;3.00;2.17;;;10.90;80.20;;;;;;5005338;28;20822;-85
2022/09/08 10:57:49;;;;;;;6.68;2.47;;;10.70;81.30;;;;;;5028122;28;20029;-87
2022/09/08 11:00:23;;;;;;;6.72;2.38;;;10.70;82.20;;;;;;5023676;28;20030;-88
2022/09/08 11:03:10;;;;;;;4.03;2.63;;;11.00;82.10;;;;;;5016251;28;20475;-88
2022/09/08 11:05:54;;;;;;;4.07;2.92;;;11.40;82.60;;;;;;5021665;28;20034;-85
2022/09/08 11:08:48;;;;;;;4.30;2.05;;;11.70;80.30;;;;;;5022633;28;20022;-88
2022/09/08 11:11:29;;;;;;;3.90;2.13;;;12.00;78.00;;;;;;5021393;28;20026;-85
2022/09/08 11:14:34;;;;;;;1.92;1.67;;;12.30;76.30;;;;;;5011496;28;20034;-84
2022/09/08 11:17:26;;;;;;;5.63;2.00;;;12.40;74.90;;;;;;5011810;28;20032;-84
2022/09/08 11:20:30;;;;;;;3.58;1.90;;;12.50;73.70;;;;;;5008646;28;20023;-86
2022/09/08 11:23:32;;;;;;;6.43;2.55;;;12.50;73.50;;;;;;5015597;28;20037;-89
2022/09/08 11:26:17;;;;;;;2.50;1.88;;;12.50;72.70;;;;;;5028212;28;20041;-88
2022/09/08 11:29:09;;;;;;;4.25;1.77;;;12.70;72.60;;;;;;5034396;28;20075;-88
2022/09/08 11:32:07;;;;;;;5.28;2.22;;;12.60;72.00;;;;;;5000274;28;20518;-91
2022/09/08 11:34:53;;;;;;;4.90;2.30;;;12.40;72.20;;;;;;5027376;28;20041;-85
2022/09/08 11:37:19;;;;;;;1.75;1.00;;;12.10;73.10;;;;;;5043853;28;20022;-86
2022/09/08 11:40:33;;;;;;;1.35;1.08;;;11.70;73.00;;;;;;5024537;28;20034;-88
2022/09/08 11:43:12;;;;;;;1.63;1.25;;;11.30;74.20;;;;;;4988037;28;20054;-88
2022/09/08 11:46:05;;;;;;;3.03;1.23;;;11.00;76.00;;;;;;4978530;28;20063;-89
2022/09/08 11:48:52;;;;;;;2.50;1.73;;;10.90;77.10;;;;;;4979281;28;20023;-86
2022/09/08 11:51:55;;;;;;;2.17;1.40;;;10.80;77.90;;;;;;4978298;28;20913;-86
2022/09/08 11:54:48;;;;;;;2.03;1.42;;;10.90;78.20;;;;;;4966391;28;20058;-85
2022/09/08 11:57:45;;;;;;;2.92;2.17;;;11.00;78.00;;;;;;4980882;28;20035;-85
2022/09/08 12:00:11;;;;;;;;;;;11.10;78.10;;;;;;4977597;28;20023;-88
2022/09/08 12:03:21;;;;;;;7.43;2.47;;;11.10;77.50;;;;;;4968585;28;19906;-83
2022/09/08 12:06:24;;;;;;;3.28;1.48;;;11.10;78.10;;;;;;4980844;28;20039;-84
2022/09/08 12:08:55;;;;;;;4.65;2.70;;;11.20;77.90;;;;;;4981298;28;20077;-82
2022/09/08 12:11:50;;;;;;;4.07;1.60;;;11.40;77.90;;;;;;4990245;28;20062;-86
2022/09/08 12:15:02;;;;;;;4.57;2.22;;;11.60;76.60;;;;;;4983079;28;20494;-88
2022/09/08 12:17:39;;;;;;;4.90;2.42;;;11.60;76.10;;;;;;4942998;29;20040;-85
2022/09/08 12:20:11;;;;;;;2.42;2.22;;;11.60;75.90;;;;;;4960256;29;20058;-84
2022/09/08 12:22:37;;;;;;;6.13;2.40;;;11.50;75.80;;;;;;4963027;28;20023;-85
2022/09/08 12:25:30;;;;;;;4.07;2.40;;;11.50;76.20;;;;;;4961640;28;20046;-84
2022/09/08 12:28:01;;;;;;;6.63;2.85;;;11.60;75.40;;;;;;4961704;28;20054;-85
2022/09/08 12:30:43;;;;;;;5.32;2.40;;;11.60;74.90;;;;;;4961749;29;20031;-83
2022/09/08 12:33:28;;;;;;;4.75;2.33;;;11.80;75.10;;;;;;4962029;28;20039;-85
2022/09/08 12:36:00;;;;;;;7.03;2.17;;;11.80;74.90;;;;;;4980838;28;20050;-82
2022/09/08 12:38:51;;;;;;;2.97;1.20;;;11.70;74.90;;;;;;4956951;29;20015;-88
2022/09/08 12:41:19;;;;;;;1.33;1.00;;;11.60;74.00;;;;;;4973577;29;20043;-89
2022/09/08 12:43:46;;;;;;;1.70;1.08;;;11.40;74.10;;;;;;4951555;29;20016;-84
2022/09/08 12:46:12;;;;;;;3.92;1.40;;;11.30;73.40;;;;;;4965951;29;20401;-88
2022/09/08 12:48:55;;;;;;;2.63;1.20;;;11.30;74.20;;;;;;4948229;28;20034;-85
2022/09/08 12:51:30;;;;;;;3.30;1.52;;;11.40;74.00;;;;;;4964682;29;20019;-87
2022/09/08 12:54:30;;;;;;;3.15;0.80;;;11.60;73.10;;;;;;5010203;28;20056;-83
2022/09/08 12:57:32;;;;;;;0.85;0.55;;;11.80;70.70;;;;;;5029505;28;20018;-89
2022/09/08 13:00:12;;;;;;;1.65;0.77;;;11.90;69.70;;;;;;5008812;28;20061;-85
2022/09/08 13:03:03;;;;;;;2.15;1.35;;;12.10;69.60;;;;;;5012260;28;20018;-83
2022/09/08 13:05:57;;;;;;;4.32;1.33;;;12.40;70.00;;;;;;5025262;28;20026;-85
2022/09/08 13:08:41;;;;;;;1.60;1.00;;;12.70;69.00;;;;;;5036640;28;20017;-85
2022/09/08 13:11:36;;;;;;;1.05;0.80;;;13.00;67.80;;;;;;5032295;28;20026;-84
2022/09/08 13:14:25;;;;;;;2.78;1.25;;;13.00;67.10;;;;;;5017566;28;20034;-84
2022/09/08 13:17:29;;;;;;;5.90;2.10;;;12.70;67.60;;;;;;5028427;28;20022;-87
2022/09/08 13:20:20;;;;;;;8.13;1.70;;;12.40;70.10;;;;;;5023114;28;20380;-82
2022/09/08 13:23:25;;;;;;;3.03;1.90;;;11.70;75.20;;;;;;5011802;28;20044;-86
2022/09/08 13:26:18;;;;;;;1.98;0.98;;;11.10;77.40;;;;;;5009550;28;20050;-82
2022/09/08 13:29:03;;;;;;;3.85;1.33;;;10.80;78.80;;;;;;5001537;28;20114;-82
2022/09/08 13:31:45;;;;;;;3.08;0.95;;;10.40;80.70;;;;;;4994634;28;20038;-85
2022/09/08 13:34:19;;;;;;;1.15;0.77;;;;;;;;;;5012304;28;20034;-84
2022/09/08 13:37:02;;;;;;;4.55;2.25;;;9.80;83.40;;;;;;4992671;28;20054;-84
2022/09/08 13:39:46;;;;;;;2.70;1.95;;;9.10;88.00;;;;;;5000605;28;20130;-87
2022/09/08 13:42:59;;;;;;;2.85;1.10;;;9.00;89.70;;;;;;4992206;28;20057;-85
2022/09/08 13:45:46;;;;;;;6.43;1.17;;;8.90;90.00;;;;;;4994912;28;20026;-82
2022/09/08 13:48:40;;;;;;;5.07;1.55;;;8.90;90.30;;;;;;4997910;28;20111;-84
2022/09/08 13:51:29;;;;;;;3.70;1.42;;;9.00;90.70;;;;;;4995343;28;20090;-82
2022/09/08 13:53:57;;;;;;;2.97;1.60;;;9.20;90.50;;;;;;4996315;28;20030;-81
2022/09/08 13:56:30;;;;;;;2.55;1.30;;;9.20;90.30;;;;;;4988929;28;20038;-84